sensor_id;sensor_type;location;lat;lon;timestamp;P1;durP1;ratioP1;P2;durP2;ratioP2
41365;SDS011;27108;44.776;20.476;2022-08-03T00:00:11;11.50;;;5.47;;
41365;SDS011;27108;44.776;20.476;2022-08-03T00:02:41;10.15;;;4.72;;
41365;SDS011;27108;44.776;20.476;2022-08-03T00:05:11;6.82;;;4.57;;
41365;SDS011;27108;44.776;20.476;2022-08-03T00:07:41;10.63;;;4.78;;
41365;SDS011;27108;44.776;20.476;2022-08-03T00:10:11;7.60;;;4.63;;
41365;SDS011;27108;44.776;20.476;2022-08-03T00:12:41;6.63;;;4.50;;
41365;SDS011;27108;44.776;20.476;2022-08-03T00:15:15;7.78;;;4.75;;
41365;SDS011;27108;44.776;20.476;2022-08-03T00:20:12;7.00;;;4.43;;
41365;SDS011;27108;44.776;20.476;2022-08-03T00:22:43;6.47;;;3.75;;
41365;SDS011;27108;44.776;20.476;2022-08-03T00:25:11;7.80;;;4.13;;
41365;SDS011;27108;44.776;20.476;2022-08-03T00:27:46;5.03;;;3.65;;
41365;SDS011;27108;44.776;20.476;2022-08-03T00:30:19;9.80;;;4.57;;
41365;SDS011;27108;44.776;20.476;2022-08-03T00:35:22;5.97;;;3.47;;
41365;SDS011;27108;44.776;20.476;2022-08-03T00:37:50;6.93;;;4.35;;
41365;SDS011;27108;44.776;20.476;2022-08-03T00:40:20;5.20;;;3.38;;
41365;SDS011;27108;44.776;20.476;2022-08-03T00:42:49;6.20;;;3.80;;
41365;SDS011;27108;44.776;20.476;2022-08-03T00:45:22;7.50;;;4.05;;
41365;SDS011;27108;44.776;20.476;2022-08-03T00:47:53;6.90;;;3.97;;
41365;SDS011;27108;44.776;20.476;2022-08-03T00:50:27;7.80;;;4.22;;
41365;SDS011;27108;44.776;20.476;2022-08-03T00:52:57;5.63;;;3.75;;
41365;SDS011;27108;44.776;20.476;2022-08-03T00:55:28;6.78;;;3.95;;
41365;SDS011;27108;44.776;20.476;2022-08-03T01:00:40;6.70;;;3.70;;
41365;SDS011;27108;44.776;20.476;2022-08-03T01:03:10;8.52;;;3.83;;
41365;SDS011;27108;44.776;20.476;2022-08-03T01:05:42;6.40;;;3.75;;
41365;SDS011;27108;44.776;20.476;2022-08-03T01:08:18;8.45;;;3.97;;
41365;SDS011;27108;44.776;20.476;2022-08-03T01:10:59;7.80;;;4.43;;
41365;SDS011;27108;44.776;20.476;2022-08-03T01:13:37;7.82;;;4.15;;
41365;SDS011;27108;44.776;20.476;2022-08-03T01:16:18;6.03;;;4.10;;
41365;SDS011;27108;44.776;20.476;2022-08-03T01:18:56;5.40;;;3.83;;
41365;SDS011;27108;44.776;20.476;2022-08-03T01:21:30;8.40;;;4.10;;
41365;SDS011;27108;44.776;20.476;2022-08-03T01:24:03;6.82;;;4.68;;
41365;SDS011;27108;44.776;20.476;2022-08-03T01:26:58;5.68;;;4.15;;
41365;SDS011;27108;44.776;20.476;2022-08-03T01:32:27;5.93;;;4.05;;
41365;SDS011;27108;44.776;20.476;2022-08-03T01:35:03;6.15;;;3.85;;
41365;SDS011;27108;44.776;20.476;2022-08-03T01:37:38;6.18;;;4.05;;
41365;SDS011;27108;44.776;20.476;2022-08-03T01:40:16;6.22;;;4.38;;
41365;SDS011;27108;44.776;20.476;2022-08-03T01:43:05;8.07;;;4.28;;
41365;SDS011;27108;44.776;20.476;2022-08-03T01:45:41;8.27;;;4.65;;
41365;SDS011;27108;44.776;20.476;2022-08-03T01:48:13;9.73;;;4.63;;
41365;SDS011;27108;44.776;20.476;2022-08-03T01:50:44;8.30;;;5.70;;
41365;SDS011;27108;44.776;20.476;2022-08-03T01:53:15;6.67;;;4.67;;
41365;SDS011;27108;44.776;20.476;2022-08-03T01:55:47;6.10;;;4.45;;
41365;SDS011;27108;44.776;20.476;2022-08-03T01:58:19;5.35;;;3.95;;
41365;SDS011;27108;44.776;20.476;2022-08-03T02:00:54;6.00;;;4.22;;
41365;SDS011;27108;44.776;20.476;2022-08-03T02:03:27;6.50;;;4.22;;
41365;SDS011;27108;44.776;20.476;2022-08-03T02:05:56;7.40;;;4.20;;
41365;SDS011;27108;44.776;20.476;2022-08-03T02:08:44;6.03;;;3.92;;
41365;SDS011;27108;44.776;20.476;2022-08-03T02:11:15;6.18;;;4.20;;
41365;SDS011;27108;44.776;20.476;2022-08-03T02:13:45;5.75;;;3.78;;
41365;SDS011;27108;44.776;20.476;2022-08-03T02:16:18;8.98;;;4.55;;
41365;SDS011;27108;44.776;20.476;2022-08-03T02:18:49;6.00;;;4.00;;
41365;SDS011;27108;44.776;20.476;2022-08-03T02:21:20;6.30;;;4.10;;
41365;SDS011;27108;44.776;20.476;2022-08-03T02:23:50;7.72;;;3.60;;
41365;SDS011;27108;44.776;20.476;2022-08-03T02:26:22;7.45;;;4.18;;
41365;SDS011;27108;44.776;20.476;2022-08-03T02:28:56;6.75;;;4.07;;
41365;SDS011;27108;44.776;20.476;2022-08-03T02:31:32;7.05;;;4.25;;
41365;SDS011;27108;44.776;20.476;2022-08-03T02:34:08;6.95;;;4.18;;
41365;SDS011;27108;44.776;20.476;2022-08-03T02:36:45;5.47;;;3.88;;
41365;SDS011;27108;44.776;20.476;2022-08-03T02:39:18;7.90;;;4.00;;
41365;SDS011;27108;44.776;20.476;2022-08-03T02:41:51;5.43;;;4.35;;
41365;SDS011;27108;44.776;20.476;2022-08-03T02:44:29;7.18;;;3.90;;
41365;SDS011;27108;44.776;20.476;2022-08-03T02:52:29;5.13;;;4.18;;
41365;SDS011;27108;44.776;20.476;2022-08-03T02:55:06;8.20;;;4.05;;
41365;SDS011;27108;44.776;20.476;2022-08-03T02:57:38;5.85;;;3.83;;
41365;SDS011;27108;44.776;20.476;2022-08-03T03:00:08;5.75;;;3.88;;
41365;SDS011;27108;44.776;20.476;2022-08-03T03:02:41;7.32;;;3.28;;
41365;SDS011;27108;44.776;20.476;2022-08-03T03:08:10;5.50;;;3.70;;
41365;SDS011;27108;44.776;20.476;2022-08-03T03:10:40;5.40;;;3.45;;
41365;SDS011;27108;44.776;20.476;2022-08-03T03:13:11;4.40;;;3.03;;
41365;SDS011;27108;44.776;20.476;2022-08-03T03:15:42;6.55;;;3.55;;
41365;SDS011;27108;44.776;20.476;2022-08-03T03:18:15;6.50;;;3.42;;
41365;SDS011;27108;44.776;20.476;2022-08-03T03:20:47;5.53;;;3.50;;
41365;SDS011;27108;44.776;20.476;2022-08-03T03:23:19;5.90;;;3.60;;
41365;SDS011;27108;44.776;20.476;2022-08-03T03:25:49;4.93;;;3.42;;
41365;SDS011;27108;44.776;20.476;2022-08-03T03:28:20;4.93;;;3.20;;
41365;SDS011;27108;44.776;20.476;2022-08-03T03:30:51;6.22;;;3.33;;
41365;SDS011;27108;44.776;20.476;2022-08-03T03:33:21;4.45;;;3.25;;
41365;SDS011;27108;44.776;20.476;2022-08-03T03:35:51;5.13;;;3.60;;
41365;SDS011;27108;44.776;20.476;2022-08-03T03:38:22;5.38;;;3.13;;
41365;SDS011;27108;44.776;20.476;2022-08-03T03:40:51;7.10;;;3.78;;
41365;SDS011;27108;44.776;20.476;2022-08-03T03:43:20;8.70;;;3.17;;
41365;SDS011;27108;44.776;20.476;2022-08-03T03:45:51;4.38;;;3.28;;
41365;SDS011;27108;44.776;20.476;2022-08-03T03:48:22;6.47;;;3.35;;
41365;SDS011;27108;44.776;20.476;2022-08-03T03:50:52;5.95;;;3.58;;
41365;SDS011;27108;44.776;20.476;2022-08-03T03:53:23;4.13;;;3.35;;
41365;SDS011;27108;44.776;20.476;2022-08-03T03:55:52;5.05;;;3.20;;
41365;SDS011;27108;44.776;20.476;2022-08-03T03:58:22;5.78;;;3.13;;
41365;SDS011;27108;44.776;20.476;2022-08-03T04:00:50;5.57;;;3.33;;
41365;SDS011;27108;44.776;20.476;2022-08-03T04:03:19;4.88;;;3.45;;
41365;SDS011;27108;44.776;20.476;2022-08-03T04:05:50;5.35;;;3.40;;
41365;SDS011;27108;44.776;20.476;2022-08-03T04:08:39;4.78;;;3.47;;
41365;SDS011;27108;44.776;20.476;2022-08-03T04:11:26;7.28;;;3.50;;
41365;SDS011;27108;44.776;20.476;2022-08-03T04:13:59;5.38;;;3.55;;
41365;SDS011;27108;44.776;20.476;2022-08-03T04:16:34;4.63;;;3.15;;
41365;SDS011;27108;44.776;20.476;2022-08-03T04:19:12;6.40;;;3.03;;
41365;SDS011;27108;44.776;20.476;2022-08-03T04:21:47;5.78;;;3.10;;
41365;SDS011;27108;44.776;20.476;2022-08-03T04:24:19;7.13;;;3.40;;
41365;SDS011;27108;44.776;20.476;2022-08-03T04:26:49;5.32;;;3.10;;
41365;SDS011;27108;44.776;20.476;2022-08-03T04:29:19;6.75;;;2.97;;
41365;SDS011;27108;44.776;20.476;2022-08-03T04:31:49;4.90;;;3.13;;
41365;SDS011;27108;44.776;20.476;2022-08-03T04:34:22;7.35;;;2.90;;
41365;SDS011;27108;44.776;20.476;2022-08-03T04:36:51;4.53;;;2.92;;
41365;SDS011;27108;44.776;20.476;2022-08-03T04:39:28;6.55;;;3.10;;
41365;SDS011;27108;44.776;20.476;2022-08-03T04:42:00;5.35;;;3.17;;
41365;SDS011;27108;44.776;20.476;2022-08-03T04:44:33;5.85;;;3.05;;
41365;SDS011;27108;44.776;20.476;2022-08-03T04:47:05;5.07;;;2.92;;
41365;SDS011;27108;44.776;20.476;2022-08-03T04:49:36;5.63;;;3.08;;
41365;SDS011;27108;44.776;20.476;2022-08-03T04:52:06;3.92;;;2.70;;
41365;SDS011;27108;44.776;20.476;2022-08-03T04:54:39;5.80;;;3.00;;
41365;SDS011;27108;44.776;20.476;2022-08-03T04:57:09;4.35;;;2.80;;
41365;SDS011;27108;44.776;20.476;2022-08-03T04:59:40;5.38;;;2.70;;
41365;SDS011;27108;44.776;20.476;2022-08-03T05:02:09;5.05;;;2.92;;
41365;SDS011;27108;44.776;20.476;2022-08-03T05:04:40;4.65;;;3.03;;
41365;SDS011;27108;44.776;20.476;2022-08-03T05:07:12;4.72;;;3.22;;
41365;SDS011;27108;44.776;20.476;2022-08-03T05:09:41;3.97;;;2.90;;
41365;SDS011;27108;44.776;20.476;2022-08-03T05:12:13;5.80;;;3.67;;
41365;SDS011;27108;44.776;20.476;2022-08-03T05:14:47;4.75;;;2.78;;
41365;SDS011;27108;44.776;20.476;2022-08-03T05:17:16;4.45;;;3.05;;
41365;SDS011;27108;44.776;20.476;2022-08-03T05:19:49;4.97;;;2.55;;
41365;SDS011;27108;44.776;20.476;2022-08-03T05:22:18;5.67;;;2.90;;
41365;SDS011;27108;44.776;20.476;2022-08-03T05:24:49;5.93;;;2.95;;
41365;SDS011;27108;44.776;20.476;2022-08-03T05:30:12;5.40;;;3.17;;
41365;SDS011;27108;44.776;20.476;2022-08-03T05:32:44;3.97;;;2.50;;
41365;SDS011;27108;44.776;20.476;2022-08-03T05:37:46;7.63;;;2.95;;
41365;SDS011;27108;44.776;20.476;2022-08-03T05:40:14;5.38;;;3.42;;
41365;SDS011;27108;44.776;20.476;2022-08-03T05:42:43;4.32;;;2.80;;
41365;SDS011;27108;44.776;20.476;2022-08-03T05:45:18;7.60;;;3.05;;
41365;SDS011;27108;44.776;20.476;2022-08-03T05:47:48;5.18;;;3.40;;
41365;SDS011;27108;44.776;20.476;2022-08-03T05:50:20;4.72;;;3.10;;
41365;SDS011;27108;44.776;20.476;2022-08-03T05:52:54;6.53;;;3.08;;
41365;SDS011;27108;44.776;20.476;2022-08-03T05:55:25;5.95;;;3.00;;
41365;SDS011;27108;44.776;20.476;2022-08-03T05:57:54;4.85;;;2.90;;
41365;SDS011;27108;44.776;20.476;2022-08-03T06:00:24;6.53;;;3.67;;
41365;SDS011;27108;44.776;20.476;2022-08-03T06:02:52;4.88;;;2.80;;
41365;SDS011;27108;44.776;20.476;2022-08-03T06:05:22;4.18;;;2.53;;
41365;SDS011;27108;44.776;20.476;2022-08-03T06:07:53;5.00;;;3.20;;
41365;SDS011;27108;44.776;20.476;2022-08-03T06:10:22;8.95;;;2.97;;
41365;SDS011;27108;44.776;20.476;2022-08-03T06:12:51;7.55;;;3.33;;
41365;SDS011;27108;44.776;20.476;2022-08-03T06:15:22;10.75;;;3.65;;
41365;SDS011;27108;44.776;20.476;2022-08-03T06:17:52;6.97;;;3.38;;
41365;SDS011;27108;44.776;20.476;2022-08-03T06:20:26;4.93;;;3.45;;
41365;SDS011;27108;44.776;20.476;2022-08-03T06:22:55;6.53;;;3.50;;
41365;SDS011;27108;44.776;20.476;2022-08-03T06:25:28;8.13;;;3.38;;
41365;SDS011;27108;44.776;20.476;2022-08-03T06:27:59;23.48;;;5.25;;
41365;SDS011;27108;44.776;20.476;2022-08-03T06:30:28;9.40;;;4.25;;
41365;SDS011;27108;44.776;20.476;2022-08-03T06:32:58;5.65;;;3.65;;
41365;SDS011;27108;44.776;20.476;2022-08-03T06:35:28;4.88;;;3.53;;
41365;SDS011;27108;44.776;20.476;2022-08-03T06:37:57;7.90;;;4.37;;
41365;SDS011;27108;44.776;20.476;2022-08-03T06:40:26;7.32;;;4.50;;
41365;SDS011;27108;44.776;20.476;2022-08-03T06:42:57;7.13;;;4.80;;
41365;SDS011;27108;44.776;20.476;2022-08-03T06:45:26;8.82;;;6.30;;
41365;SDS011;27108;44.776;20.476;2022-08-03T06:48:00;9.32;;;5.90;;
41365;SDS011;27108;44.776;20.476;2022-08-03T06:50:32;7.55;;;5.88;;
41365;SDS011;27108;44.776;20.476;2022-08-03T06:53:03;8.23;;;5.20;;
41365;SDS011;27108;44.776;20.476;2022-08-03T06:55:35;5.75;;;4.28;;
41365;SDS011;27108;44.776;20.476;2022-08-03T06:58:07;6.00;;;4.13;;
41365;SDS011;27108;44.776;20.476;2022-08-03T07:00:37;6.13;;;4.22;;
41365;SDS011;27108;44.776;20.476;2022-08-03T07:03:05;5.30;;;3.50;;
41365;SDS011;27108;44.776;20.476;2022-08-03T07:05:36;7.07;;;3.47;;
41365;SDS011;27108;44.776;20.476;2022-08-03T07:08:04;7.73;;;3.13;;
41365;SDS011;27108;44.776;20.476;2022-08-03T07:10:34;6.03;;;3.55;;
41365;SDS011;27108;44.776;20.476;2022-08-03T07:13:03;7.65;;;3.40;;
41365;SDS011;27108;44.776;20.476;2022-08-03T07:15:33;6.30;;;3.05;;
41365;SDS011;27108;44.776;20.476;2022-08-03T07:18:04;6.47;;;3.63;;
41365;SDS011;27108;44.776;20.476;2022-08-03T07:20:33;5.18;;;3.00;;
41365;SDS011;27108;44.776;20.476;2022-08-03T07:23:04;9.25;;;3.63;;
41365;SDS011;27108;44.776;20.476;2022-08-03T07:25:35;5.20;;;3.00;;
41365;SDS011;27108;44.776;20.476;2022-08-03T07:28:04;7.18;;;3.10;;
41365;SDS011;27108;44.776;20.476;2022-08-03T07:30:41;5.03;;;3.33;;
41365;SDS011;27108;44.776;20.476;2022-08-03T07:33:10;7.60;;;3.38;;
41365;SDS011;27108;44.776;20.476;2022-08-03T07:35:41;5.65;;;3.15;;
41365;SDS011;27108;44.776;20.476;2022-08-03T07:38:09;5.63;;;2.85;;
41365;SDS011;27108;44.776;20.476;2022-08-03T07:40:38;5.97;;;3.42;;
41365;SDS011;27108;44.776;20.476;2022-08-03T07:43:10;8.30;;;2.83;;
41365;SDS011;27108;44.776;20.476;2022-08-03T07:45:40;5.18;;;3.20;;
41365;SDS011;27108;44.776;20.476;2022-08-03T07:48:09;6.05;;;3.22;;
41365;SDS011;27108;44.776;20.476;2022-08-03T07:50:38;6.43;;;2.92;;
41365;SDS011;27108;44.776;20.476;2022-08-03T07:53:10;4.80;;;2.67;;
41365;SDS011;27108;44.776;20.476;2022-08-03T07:55:41;3.78;;;2.42;;
41365;SDS011;27108;44.776;20.476;2022-08-03T07:58:13;4.63;;;3.00;;
41365;SDS011;27108;44.776;20.476;2022-08-03T08:00:45;4.35;;;2.85;;
41365;SDS011;27108;44.776;20.476;2022-08-03T08:03:17;5.32;;;2.80;;
41365;SDS011;27108;44.776;20.476;2022-08-03T08:05:47;5.70;;;2.83;;
41365;SDS011;27108;44.776;20.476;2022-08-03T08:08:16;6.80;;;3.03;;
41365;SDS011;27108;44.776;20.476;2022-08-03T08:10:46;7.50;;;3.17;;
41365;SDS011;27108;44.776;20.476;2022-08-03T08:13:16;5.80;;;2.70;;
41365;SDS011;27108;44.776;20.476;2022-08-03T08:15:45;3.47;;;2.40;;
41365;SDS011;27108;44.776;20.476;2022-08-03T08:18:13;4.15;;;2.70;;
41365;SDS011;27108;44.776;20.476;2022-08-03T08:20:44;6.70;;;2.70;;
41365;SDS011;27108;44.776;20.476;2022-08-03T08:25:52;3.45;;;2.00;;
41365;SDS011;27108;44.776;20.476;2022-08-03T08:28:22;3.53;;;2.45;;
41365;SDS011;27108;44.776;20.476;2022-08-03T08:30:51;6.60;;;2.40;;
41365;SDS011;27108;44.776;20.476;2022-08-03T08:33:21;3.27;;;2.03;;
41365;SDS011;27108;44.776;20.476;2022-08-03T08:35:59;3.70;;;1.88;;
41365;SDS011;27108;44.776;20.476;2022-08-03T08:38:33;3.83;;;2.15;;
41365;SDS011;27108;44.776;20.476;2022-08-03T08:41:04;4.53;;;1.98;;
41365;SDS011;27108;44.776;20.476;2022-08-03T08:43:33;5.07;;;2.35;;
41365;SDS011;27108;44.776;20.476;2022-08-03T08:46:01;4.20;;;3.05;;
41365;SDS011;27108;44.776;20.476;2022-08-03T08:48:31;4.03;;;2.30;;
41365;SDS011;27108;44.776;20.476;2022-08-03T08:51:03;6.55;;;2.50;;
41365;SDS011;27108;44.776;20.476;2022-08-03T08:53:36;4.20;;;2.20;;
41365;SDS011;27108;44.776;20.476;2022-08-03T08:56:06;6.50;;;3.42;;
41365;SDS011;27108;44.776;20.476;2022-08-03T08:58:43;3.83;;;2.85;;
41365;SDS011;27108;44.776;20.476;2022-08-03T09:01:17;5.60;;;2.22;;
41365;SDS011;27108;44.776;20.476;2022-08-03T09:03:52;3.58;;;2.10;;
41365;SDS011;27108;44.776;20.476;2022-08-03T09:06:22;3.17;;;2.38;;
41365;SDS011;27108;44.776;20.476;2022-08-03T09:08:54;2.95;;;1.92;;
41365;SDS011;27108;44.776;20.476;2022-08-03T09:11:22;4.07;;;1.90;;
41365;SDS011;27108;44.776;20.476;2022-08-03T09:13:51;5.38;;;2.20;;
41365;SDS011;27108;44.776;20.476;2022-08-03T09:16:22;5.40;;;1.73;;
41365;SDS011;27108;44.776;20.476;2022-08-03T09:18:51;4.60;;;3.20;;
41365;SDS011;27108;44.776;20.476;2022-08-03T09:21:22;4.07;;;2.05;;
41365;SDS011;27108;44.776;20.476;2022-08-03T09:24:03;2.17;;;1.60;;
41365;SDS011;27108;44.776;20.476;2022-08-03T09:26:36;2.47;;;1.58;;
41365;SDS011;27108;44.776;20.476;2022-08-03T09:29:07;3.60;;;1.98;;
41365;SDS011;27108;44.776;20.476;2022-08-03T09:31:44;3.70;;;1.70;;
41365;SDS011;27108;44.776;20.476;2022-08-03T09:34:15;2.25;;;1.60;;
41365;SDS011;27108;44.776;20.476;2022-08-03T09:36:48;3.22;;;1.83;;
41365;SDS011;27108;44.776;20.476;2022-08-03T09:39:23;3.05;;;2.20;;
41365;SDS011;27108;44.776;20.476;2022-08-03T09:42:04;2.50;;;2.00;;
41365;SDS011;27108;44.776;20.476;2022-08-03T09:44:34;2.38;;;2.05;;
41365;SDS011;27108;44.776;20.476;2022-08-03T09:47:05;3.50;;;2.35;;
41365;SDS011;27108;44.776;20.476;2022-08-03T09:49:40;3.65;;;2.42;;
41365;SDS011;27108;44.776;20.476;2022-08-03T09:52:13;3.03;;;2.17;;
41365;SDS011;27108;44.776;20.476;2022-08-03T09:54:49;4.15;;;1.85;;
41365;SDS011;27108;44.776;20.476;2022-08-03T09:57:20;5.28;;;2.60;;
41365;SDS011;27108;44.776;20.476;2022-08-03T09:59:53;4.63;;;2.80;;
41365;SDS011;27108;44.776;20.476;2022-08-03T10:02:40;5.82;;;2.90;;
41365;SDS011;27108;44.776;20.476;2022-08-03T10:05:11;3.63;;;3.03;;
41365;SDS011;27108;44.776;20.476;2022-08-03T10:07:44;4.93;;;2.55;;
41365;SDS011;27108;44.776;20.476;2022-08-03T10:10:18;5.88;;;2.60;;
41365;SDS011;27108;44.776;20.476;2022-08-03T10:12:47;4.88;;;2.95;;
41365;SDS011;27108;44.776;20.476;2022-08-03T10:15:16;3.75;;;2.95;;
41365;SDS011;27108;44.776;20.476;2022-08-03T10:17:45;2.83;;;2.40;;
41365;SDS011;27108;44.776;20.476;2022-08-03T10:20:14;3.85;;;1.90;;
41365;SDS011;27108;44.776;20.476;2022-08-03T10:22:44;1.80;;;1.52;;
41365;SDS011;27108;44.776;20.476;2022-08-03T10:25:14;2.83;;;1.85;;
41365;SDS011;27108;44.776;20.476;2022-08-03T10:27:46;2.58;;;1.92;;
41365;SDS011;27108;44.776;20.476;2022-08-03T10:30:20;3.92;;;2.50;;
41365;SDS011;27108;44.776;20.476;2022-08-03T10:32:51;2.67;;;2.25;;
41365;SDS011;27108;44.776;20.476;2022-08-03T10:35:23;2.83;;;2.22;;
41365;SDS011;27108;44.776;20.476;2022-08-03T10:37:54;3.47;;;2.03;;
41365;SDS011;27108;44.776;20.476;2022-08-03T10:40:26;3.80;;;2.40;;
41365;SDS011;27108;44.776;20.476;2022-08-03T10:43:16;3.28;;;2.47;;
41365;SDS011;27108;44.776;20.476;2022-08-03T10:45:47;3.03;;;2.38;;
41365;SDS011;27108;44.776;20.476;2022-08-03T10:48:17;3.47;;;2.22;;
41365;SDS011;27108;44.776;20.476;2022-08-03T10:50:49;3.55;;;2.45;;
41365;SDS011;27108;44.776;20.476;2022-08-03T10:53:33;2.92;;;1.75;;
41365;SDS011;27108;44.776;20.476;2022-08-03T10:56:03;2.00;;;1.60;;
41365;SDS011;27108;44.776;20.476;2022-08-03T10:58:52;2.72;;;1.77;;
41365;SDS011;27108;44.776;20.476;2022-08-03T11:04:18;2.92;;;2.15;;
41365;SDS011;27108;44.776;20.476;2022-08-03T11:07:16;1.95;;;1.65;;
41365;SDS011;27108;44.776;20.476;2022-08-03T11:09:47;2.63;;;1.80;;
41365;SDS011;27108;44.776;20.476;2022-08-03T11:12:24;3.08;;;1.70;;
41365;SDS011;27108;44.776;20.476;2022-08-03T11:14:57;2.28;;;1.77;;
41365;SDS011;27108;44.776;20.476;2022-08-03T11:17:27;2.83;;;1.90;;
41365;SDS011;27108;44.776;20.476;2022-08-03T11:19:56;2.17;;;1.50;;
41365;SDS011;27108;44.776;20.476;2022-08-03T11:22:25;3.05;;;1.80;;
41365;SDS011;27108;44.776;20.476;2022-08-03T11:25:20;2.30;;;1.73;;
41365;SDS011;27108;44.776;20.476;2022-08-03T11:27:49;3.08;;;1.77;;
41365;SDS011;27108;44.776;20.476;2022-08-03T11:30:56;2.10;;;1.55;;
41365;SDS011;27108;44.776;20.476;2022-08-03T11:34:15;1.63;;;1.23;;
41365;SDS011;27108;44.776;20.476;2022-08-03T11:39:54;2.88;;;1.63;;
41365;SDS011;27108;44.776;20.476;2022-08-03T11:42:42;2.20;;;1.63;;
41365;SDS011;27108;44.776;20.476;2022-08-03T11:45:15;2.95;;;1.67;;
41365;SDS011;27108;44.776;20.476;2022-08-03T11:50:46;2.38;;;1.77;;
41365;SDS011;27108;44.776;20.476;2022-08-03T11:53:17;2.40;;;1.80;;
41365;SDS011;27108;44.776;20.476;2022-08-03T11:55:46;3.08;;;2.13;;
41365;SDS011;27108;44.776;20.476;2022-08-03T11:58:16;2.08;;;1.45;;
41365;SDS011;27108;44.776;20.476;2022-08-03T12:00:48;1.70;;;1.60;;
41365;SDS011;27108;44.776;20.476;2022-08-03T12:03:30;4.80;;;1.90;;
41365;SDS011;27108;44.776;20.476;2022-08-03T12:06:00;2.40;;;1.90;;
41365;SDS011;27108;44.776;20.476;2022-08-03T12:08:30;2.83;;;1.90;;
41365;SDS011;27108;44.776;20.476;2022-08-03T12:11:02;3.45;;;1.70;;
41365;SDS011;27108;44.776;20.476;2022-08-03T12:13:37;3.42;;;1.77;;
41365;SDS011;27108;44.776;20.476;2022-08-03T12:16:08;3.60;;;1.80;;
41365;SDS011;27108;44.776;20.476;2022-08-03T12:18:38;2.33;;;1.50;;
41365;SDS011;27108;44.776;20.476;2022-08-03T12:21:08;2.97;;;1.50;;
41365;SDS011;27108;44.776;20.476;2022-08-03T12:27:02;3.10;;;2.00;;
41365;SDS011;27108;44.776;20.476;2022-08-03T12:29:30;3.03;;;2.05;;
41365;SDS011;27108;44.776;20.476;2022-08-03T12:31:59;2.47;;;1.75;;
41365;SDS011;27108;44.776;20.476;2022-08-03T12:37:17;2.70;;;1.85;;
41365;SDS011;27108;44.776;20.476;2022-08-03T12:39:50;2.13;;;1.90;;
41365;SDS011;27108;44.776;20.476;2022-08-03T12:42:28;3.55;;;1.70;;
41365;SDS011;27108;44.776;20.476;2022-08-03T12:47:58;1.90;;;1.63;;
41365;SDS011;27108;44.776;20.476;2022-08-03T12:50:29;2.23;;;1.70;;
41365;SDS011;27108;44.776;20.476;2022-08-03T12:53:00;2.80;;;1.75;;
41365;SDS011;27108;44.776;20.476;2022-08-03T12:55:30;3.55;;;2.00;;
41365;SDS011;27108;44.776;20.476;2022-08-03T12:58:03;3.10;;;1.55;;
41365;SDS011;27108;44.776;20.476;2022-08-03T13:00:37;2.08;;;1.60;;
41365;SDS011;27108;44.776;20.476;2022-08-03T13:03:13;2.47;;;1.65;;
41365;SDS011;27108;44.776;20.476;2022-08-03T13:05:55;3.17;;;1.75;;
41365;SDS011;27108;44.776;20.476;2022-08-03T13:10:53;7.28;;;2.50;;
41365;SDS011;27108;44.776;20.476;2022-08-03T13:13:36;3.78;;;2.00;;
41365;SDS011;27108;44.776;20.476;2022-08-03T13:16:06;4.97;;;1.92;;
41365;SDS011;27108;44.776;20.476;2022-08-03T13:18:40;1.63;;;1.52;;
41365;SDS011;27108;44.776;20.476;2022-08-03T13:21:10;2.13;;;1.52;;
41365;SDS011;27108;44.776;20.476;2022-08-03T13:26:08;2.10;;;1.50;;
41365;SDS011;27108;44.776;20.476;2022-08-03T13:28:43;4.13;;;1.38;;
41365;SDS011;27108;44.776;20.476;2022-08-03T13:31:11;3.33;;;1.80;;
41365;SDS011;27108;44.776;20.476;2022-08-03T13:33:43;2.08;;;1.63;;
41365;SDS011;27108;44.776;20.476;2022-08-03T13:36:14;2.22;;;1.60;;
41365;SDS011;27108;44.776;20.476;2022-08-03T13:38:43;3.80;;;1.98;;
41365;SDS011;27108;44.776;20.476;2022-08-03T13:41:12;2.13;;;1.70;;
41365;SDS011;27108;44.776;20.476;2022-08-03T13:43:41;2.08;;;1.40;;
41365;SDS011;27108;44.776;20.476;2022-08-03T13:46:09;2.22;;;1.40;;
41365;SDS011;27108;44.776;20.476;2022-08-03T13:48:39;2.42;;;1.83;;
41365;SDS011;27108;44.776;20.476;2022-08-03T13:51:11;1.75;;;1.60;;
41365;SDS011;27108;44.776;20.476;2022-08-03T13:53:41;2.40;;;1.60;;
41365;SDS011;27108;44.776;20.476;2022-08-03T13:56:11;3.05;;;1.58;;
41365;SDS011;27108;44.776;20.476;2022-08-03T13:58:40;2.67;;;1.60;;
41365;SDS011;27108;44.776;20.476;2022-08-03T14:01:09;2.55;;;2.00;;
41365;SDS011;27108;44.776;20.476;2022-08-03T14:03:38;2.65;;;1.70;;
41365;SDS011;27108;44.776;20.476;2022-08-03T14:06:07;3.30;;;1.67;;
41365;SDS011;27108;44.776;20.476;2022-08-03T14:08:36;2.58;;;1.73;;
41365;SDS011;27108;44.776;20.476;2022-08-03T14:11:06;2.28;;;1.77;;
41365;SDS011;27108;44.776;20.476;2022-08-03T14:13:35;2.40;;;1.60;;
41365;SDS011;27108;44.776;20.476;2022-08-03T14:16:04;3.17;;;1.55;;
41365;SDS011;27108;44.776;20.476;2022-08-03T14:18:33;2.03;;;1.60;;
41365;SDS011;27108;44.776;20.476;2022-08-03T14:21:02;3.28;;;1.80;;
41365;SDS011;27108;44.776;20.476;2022-08-03T14:23:35;1.92;;;1.50;;
41365;SDS011;27108;44.776;20.476;2022-08-03T14:26:04;2.00;;;1.40;;
41365;SDS011;27108;44.776;20.476;2022-08-03T14:28:37;1.67;;;1.40;;
41365;SDS011;27108;44.776;20.476;2022-08-03T14:31:06;2.10;;;1.55;;
41365;SDS011;27108;44.776;20.476;2022-08-03T14:33:35;2.25;;;1.58;;
41365;SDS011;27108;44.776;20.476;2022-08-03T14:36:04;2.90;;;1.50;;
41365;SDS011;27108;44.776;20.476;2022-08-03T14:41:14;2.70;;;1.60;;
41365;SDS011;27108;44.776;20.476;2022-08-03T14:43:43;5.25;;;2.25;;
41365;SDS011;27108;44.776;20.476;2022-08-03T14:49:11;2.25;;;1.50;;
41365;SDS011;27108;44.776;20.476;2022-08-03T14:51:43;2.83;;;1.70;;
41365;SDS011;27108;44.776;20.476;2022-08-03T14:54:13;3.05;;;1.40;;
41365;SDS011;27108;44.776;20.476;2022-08-03T14:56:43;2.25;;;1.40;;
41365;SDS011;27108;44.776;20.476;2022-08-03T14:59:13;3.78;;;1.60;;
41365;SDS011;27108;44.776;20.476;2022-08-03T15:01:42;2.00;;;1.50;;
41365;SDS011;27108;44.776;20.476;2022-08-03T15:04:10;2.00;;;1.70;;
41365;SDS011;27108;44.776;20.476;2022-08-03T15:06:40;2.33;;;1.40;;
41365;SDS011;27108;44.776;20.476;2022-08-03T15:09:08;2.33;;;1.45;;
41365;SDS011;27108;44.776;20.476;2022-08-03T15:11:38;2.08;;;1.52;;
41365;SDS011;27108;44.776;20.476;2022-08-03T15:14:08;2.35;;;1.45;;
41365;SDS011;27108;44.776;20.476;2022-08-03T15:16:37;2.15;;;1.40;;
41365;SDS011;27108;44.776;20.476;2022-08-03T15:19:06;1.88;;;1.40;;
41365;SDS011;27108;44.776;20.476;2022-08-03T15:21:36;1.58;;;1.48;;
41365;SDS011;27108;44.776;20.476;2022-08-03T15:24:05;2.60;;;1.70;;
41365;SDS011;27108;44.776;20.476;2022-08-03T15:26:35;3.08;;;1.67;;
41365;SDS011;27108;44.776;20.476;2022-08-03T15:29:09;2.78;;;1.50;;
41365;SDS011;27108;44.776;20.476;2022-08-03T15:31:39;3.55;;;1.88;;
41365;SDS011;27108;44.776;20.476;2022-08-03T15:34:08;2.55;;;1.60;;
41365;SDS011;27108;44.776;20.476;2022-08-03T15:36:37;3.72;;;1.90;;
41365;SDS011;27108;44.776;20.476;2022-08-03T15:39:07;1.90;;;1.60;;
41365;SDS011;27108;44.776;20.476;2022-08-03T15:41:36;2.75;;;1.85;;
41365;SDS011;27108;44.776;20.476;2022-08-03T15:44:05;2.30;;;1.65;;
41365;SDS011;27108;44.776;20.476;2022-08-03T15:46:36;3.53;;;1.42;;
41365;SDS011;27108;44.776;20.476;2022-08-03T15:49:05;3.63;;;1.75;;
41365;SDS011;27108;44.776;20.476;2022-08-03T15:51:35;2.30;;;1.73;;
41365;SDS011;27108;44.776;20.476;2022-08-03T15:54:04;2.25;;;1.50;;
41365;SDS011;27108;44.776;20.476;2022-08-03T15:56:37;2.58;;;2.05;;